sensor_id;sensor_type;location;lat;lon;timestamp;pressure;altitude;pressure_sealevel;temperature;humidity
38852;BME280;24605;50.092;9.182;2023-04-25T00:00:00;97184.00;;;6.84;100.00
38852;BME280;24605;50.092;9.182;2023-04-25T00:02:33;97196.06;;;6.77;100.00
38852;BME280;24605;50.092;9.182;2023-04-25T00:05:00;97135.34;;;6.26;100.00
38852;BME280;24605;50.092;9.182;2023-04-25T00:07:26;97191.00;;;6.58;100.00
38852;BME280;24605;50.092;9.182;2023-04-25T00:09:53;97188.56;;;6.49;100.00
38852;BME280;24605;50.092;9.182;2023-04-25T00:12:19;97185.94;;;6.40;100.00
38852;BME280;24605;50.092;9.182;2023-04-25T00:14:48;97188.19;;;6.35;100.00
38852;BME280;24605;50.092;9.182;2023-04-25T00:17:15;97188.19;;;6.35;100.00
38852;BME280;24605;50.092;9.182;2023-04-25T00:19:42;97182.19;;;6.35;100.00
38852;BME280;24605;50.092;9.182;2023-04-25T00:22:10;97192.59;;;6.35;100.00
38852;BME280;24605;50.092;9.182;2023-04-25T00:24:37;97185.94;;;6.32;100.00
38852;BME280;24605;50.092;9.182;2023-04-25T00:27:03;97174.84;;;6.22;100.00
38852;BME280;24605;50.092;9.182;2023-04-25T00:29:30;97175.34;;;6.34;100.00
38852;BME280;24605;50.092;9.182;2023-04-25T00:31:56;97184.50;;;6.46;100.00
38852;BME280;24605;50.092;9.182;2023-04-25T00:34:23;97168.03;;;6.37;100.00
38852;BME280;24605;50.092;9.182;2023-04-25T00:36:50;97182.84;;;6.37;100.00
38852;BME280;24605;50.092;9.182;2023-04-25T00:39:17;97182.03;;;6.45;100.00
38852;BME280;24605;50.092;9.182;2023-04-25T00:41:44;97187.59;;;6.50;100.00
38852;BME280;24605;50.092;9.182;2023-04-25T00:44:11;97169.19;;;6.35;100.00
38852;BME280;24605;50.092;9.182;2023-04-25T00:46:38;97190.31;;;6.40;100.00
38852;BME280;24605;50.092;9.182;2023-04-25T00:49:06;97189.53;;;6.39;100.00
38852;BME280;24605;50.092;9.182;2023-04-25T00:51:32;97189.69;;;6.38;100.00
38852;BME280;24605;50.092;9.182;2023-04-25T00:54:00;97181.03;;;6.29;100.00
38852;BME280;24605;50.092;9.182;2023-04-25T00:56:27;97190.16;;;6.33;100.00
38852;BME280;24605;50.092;9.182;2023-04-25T00:58:54;97178.13;;;6.32;100.00
38852;BME280;24605;50.092;9.182;2023-04-25T01:01:22;97181.88;;;6.30;100.00
38852;BME280;24605;50.092;9.182;2023-04-25T01:03:49;97181.69;;;6.31;100.00
38852;BME280;24605;50.092;9.182;2023-04-25T01:06:16;97176.81;;;6.28;100.00
38852;BME280;24605;50.092;9.182;2023-04-25T01:08:43;97175.03;;;6.29;100.00
38852;BME280;24605;50.092;9.182;2023-04-25T01:11:11;97183.16;;;6.25;100.00
38852;BME280;24605;50.092;9.182;2023-04-25T01:13:38;97180.72;;;6.32;100.00
38852;BME280;24605;50.092;9.182;2023-04-25T01:16:05;97177.63;;;6.29;100.00
38852;BME280;24605;50.092;9.182;2023-04-25T01:18:31;97178.09;;;6.16;100.00
38852;BME280;24605;50.092;9.182;2023-04-25T01:21:06;97176.78;;;6.20;100.00
38852;BME280;24605;50.092;9.182;2023-04-25T01:23:34;97178.09;;;6.07;100.00
38852;BME280;24605;50.092;9.182;2023-04-25T01:26:00;97168.00;;;6.04;100.00
38852;BME280;24605;50.092;9.182;2023-04-25T01:28:27;97178.41;;;6.04;100.00
38852;BME280;24605;50.092;9.182;2023-04-25T01:30:54;97171.72;;;6.02;100.00
38852;BME280;24605;50.092;9.182;2023-04-25T01:33:22;97143.66;;;5.79;100.00
38852;BME280;24605;50.092;9.182;2023-04-25T01:35:49;97153.78;;;5.90;100.00
38852;BME280;24605;50.092;9.182;2023-04-25T01:38:17;97168.97;;;6.03;100.00
38852;BME280;24605;50.092;9.182;2023-04-25T01:40:45;97170.59;;;6.04;100.00
38852;BME280;24605;50.092;9.182;2023-04-25T01:43:11;97171.56;;;6.03;100.00
38852;BME280;24605;50.092;9.182;2023-04-25T01:45:39;97161.59;;;5.99;100.00
38852;BME280;24605;50.092;9.182;2023-04-25T01:48:06;97170.41;;;6.06;100.00
38852;BME280;24605;50.092;9.182;2023-04-25T01:50:33;97164.72;;;6.02;100.00
38852;BME280;24605;50.092;9.182;2023-04-25T01:53:00;97166.88;;;6.15;100.00
38852;BME280;24605;50.092;9.182;2023-04-25T01:55:28;97168.81;;;6.13;100.00
38852;BME280;24605;50.092;9.182;2023-04-25T01:57:55;97171.28;;;6.15;100.00
38852;BME280;24605;50.092;9.182;2023-04-25T02:00:21;97167.34;;;6.10;100.00
38852;BME280;24605;50.092;9.182;2023-04-25T02:02:48;97153.66;;;6.00;100.00
38852;BME280;24605;50.092;9.182;2023-04-25T02:05:15;97166.34;;;6.03;100.00
38852;BME280;24605;50.092;9.182;2023-04-25T02:07:42;97174.00;;;6.13;100.00
38852;BME280;24605;50.092;9.182;2023-04-25T02:10:09;97169.63;;;6.05;100.00
38852;BME280;24605;50.092;9.182;2023-04-25T02:12:37;97173.84;;;6.06;100.00
38852;BME280;24605;50.092;9.182;2023-04-25T02:15:04;97176.78;;;6.03;100.00
38852;BME280;24605;50.092;9.182;2023-04-25T02:17:31;97180.50;;;6.01;100.00
38852;BME280;24605;50.092;9.182;2023-04-25T02:19:58;97187.91;;;5.95;100.00
38852;BME280;24605;50.092;9.182;2023-04-25T02:22:25;97178.34;;;5.96;100.00
38852;BME280;24605;50.092;9.182;2023-04-25T02:24:53;97183.38;;;5.97;100.00
38852;BME280;24605;50.092;9.182;2023-04-25T02:27:20;97178.41;;;6.04;100.00
38852;BME280;24605;50.092;9.182;2023-04-25T02:29:48;97177.72;;;6.02;100.00
38852;BME280;24605;50.092;9.182;2023-04-25T02:32:14;97181.75;;;5.96;100.00
38852;BME280;24605;50.092;9.182;2023-04-25T02:34:41;97183.38;;;5.97;100.00
38852;BME280;24605;50.092;9.182;2023-04-25T02:37:07;97177.44;;;6.05;100.00
38852;BME280;24605;50.092;9.182;2023-04-25T02:39:33;97160.63;;;5.91;100.00
38852;BME280;24605;50.092;9.182;2023-04-25T02:42:00;97170.59;;;6.04;100.00
38852;BME280;24605;50.092;9.182;2023-04-25T02:44:27;97173.94;;;5.96;100.00
38852;BME280;24605;50.092;9.182;2023-04-25T02:46:55;97167.31;;;6.02;100.00
38852;BME280;24605;50.092;9.182;2023-04-25T02:49:22;97167.50;;;6.01;100.00
38852;BME280;24605;50.092;9.182;2023-04-25T02:51:48;97163.44;;;6.06;100.00
38852;BME280;24605;50.092;9.182;2023-04-25T02:54:14;97166.19;;;6.05;100.00
38852;BME280;24605;50.092;9.182;2023-04-25T02:56:41;97166.81;;;5.99;100.00
38852;BME280;24605;50.092;9.182;2023-04-25T02:59:07;97163.09;;;6.01;100.00
38852;BME280;24605;50.092;9.182;2023-04-25T03:01:34;97165.50;;;5.94;100.00
38852;BME280;24605;50.092;9.182;2023-04-25T03:04:05;97167.44;;;5.92;100.00
38852;BME280;24605;50.092;9.182;2023-04-25T03:06:31;97170.84;;;5.93;100.00
38852;BME280;24605;50.092;9.182;2023-04-25T03:08:57;97156.41;;;5.99;100.00
38852;BME280;24605;50.092;9.182;2023-04-25T03:11:25;97149.06;;;5.94;100.00
38852;BME280;24605;50.092;9.182;2023-04-25T03:13:52;97143.91;;;6.02;100.00
38852;BME280;24605;50.092;9.182;2023-04-25T03:16:18;97137.06;;;6.01;100.00
38852;BME280;24605;50.092;9.182;2023-04-25T03:18:44;97153.34;;;6.03;100.00
38852;BME280;24605;50.092;9.182;2023-04-25T03:21:12;97155.47;;;6.00;100.00
38852;BME280;24605;50.092;9.182;2023-04-25T03:23:39;97148.63;;;6.07;100.00
38852;BME280;24605;50.092;9.182;2023-04-25T03:26:05;97157.25;;;5.99;100.00
38852;BME280;24605;50.092;9.182;2023-04-25T03:28:32;97154.94;;;5.96;100.00
38852;BME280;24605;50.092;9.182;2023-04-25T03:30:58;97149.91;;;5.94;100.00
38852;BME280;24605;50.092;9.182;2023-04-25T03:33:25;97155.25;;;5.93;100.00
38852;BME280;24605;50.092;9.182;2023-04-25T03:35:51;97165.66;;;5.93;100.00
38852;BME280;24605;50.092;9.182;2023-04-25T03:38:19;97162.53;;;5.81;100.00
38852;BME280;24605;50.092;9.182;2023-04-25T03:40:46;97170.78;;;5.68;100.00
38852;BME280;24605;50.092;9.182;2023-04-25T03:43:12;97171.41;;;5.62;100.00
38852;BME280;24605;50.092;9.182;2023-04-25T03:45:38;97168.63;;;5.55;100.00
38852;BME280;24605;50.092;9.182;2023-04-25T03:48:05;97154.13;;;5.44;100.00
38852;BME280;24605;50.092;9.182;2023-04-25T03:50:31;97176.59;;;5.54;100.00
38852;BME280;24605;50.092;9.182;2023-04-25T03:52:58;97176.22;;;5.48;100.00
38852;BME280;24605;50.092;9.182;2023-04-25T03:55:26;97182.38;;;5.47;100.00
38852;BME280;24605;50.092;9.182;2023-04-25T03:57:52;97176.56;;;5.45;100.00
38852;BME280;24605;50.092;9.182;2023-04-25T04:00:19;97179.44;;;5.42;100.00
38852;BME280;24605;50.092;9.182;2023-04-25T04:02:45;97182.22;;;5.41;100.00
38852;BME280;24605;50.092;9.182;2023-04-25T04:05:12;97173.53;;;5.32;100.00
38852;BME280;24605;50.092;9.182;2023-04-25T04:07:38;97203.78;;;5.33;100.00
38852;BME280;24605;50.092;9.182;2023-04-25T04:10:08;97206.41;;;5.41;100.00
38852;BME280;24605;50.092;9.182;2023-04-25T04:12:36;97200.91;;;5.44;100.00
38852;BME280;24605;50.092;9.182;2023-04-25T04:15:03;97205.47;;;5.51;100.00
38852;BME280;24605;50.092;9.182;2023-04-25T04:17:31;97200.94;;;5.53;100.00
38852;BME280;24605;50.092;9.182;2023-04-25T04:19:57;97195.09;;;5.51;100.00
38852;BME280;24605;50.092;9.182;2023-04-25T04:22:24;97168.50;;;5.30;100.00
38852;BME280;24605;50.092;9.182;2023-04-25T04:24:51;97196.06;;;5.49;100.00
38852;BME280;24605;50.092;9.182;2023-04-25T04:27:18;97205.19;;;5.54;100.00
38852;BME280;24605;50.092;9.182;2023-04-25T04:29:46;97212.63;;;5.48;100.00
38852;BME280;24605;50.092;9.182;2023-04-25T04:32:13;97180.53;;;5.31;100.00
38852;BME280;24605;50.092;9.182;2023-04-25T04:34:40;97197.91;;;5.31;100.00
38852;BME280;24605;50.092;9.182;2023-04-25T04:37:07;97201.72;;;5.45;100.00
38852;BME280;24605;50.092;9.182;2023-04-25T04:39:35;97210.97;;;5.47;100.00
38852;BME280;24605;50.092;9.182;2023-04-25T04:42:01;97209.56;;;5.53;100.00
38852;BME280;24605;50.092;9.182;2023-04-25T04:44:28;97217.97;;;5.47;100.00
38852;BME280;24605;50.092;9.182;2023-04-25T04:47:00;97212.66;;;5.57;100.00
38852;BME280;24605;50.092;9.182;2023-04-25T04:49:28;97226.28;;;5.51;100.00
38852;BME280;24605;50.092;9.182;2023-04-25T04:51:55;97207.06;;;5.43;100.00
38852;BME280;24605;50.092;9.182;2023-04-25T04:54:21;97224.34;;;5.53;100.00
38852;BME280;24605;50.092;9.182;2023-04-25T04:56:48;97224.66;;;5.49;100.00
38852;BME280;24605;50.092;9.182;2023-04-25T04:59:15;97234.25;;;5.49;100.00
38852;BME280;24605;50.092;9.182;2023-04-25T05:01:41;97239.75;;;5.46;100.00
38852;BME280;24605;50.092;9.182;2023-04-25T05:04:09;97247.38;;;5.47;100.00
38852;BME280;24605;50.092;9.182;2023-04-25T05:06:36;97247.44;;;5.29;100.00
38852;BME280;24605;50.092;9.182;2023-04-25T05:09:02;97219.06;;;5.10;100.00
38852;BME280;24605;50.092;9.182;2023-04-25T05:11:29;97244.38;;;5.34;100.00
38852;BME280;24605;50.092;9.182;2023-04-25T05:13:56;97199.34;;;4.99;100.00
38852;BME280;24605;50.092;9.182;2023-04-25T05:16:22;97246.31;;;5.32;100.00
38852;BME280;24605;50.092;9.182;2023-04-25T05:18:48;97248.41;;;5.28;100.00
38852;BME280;24605;50.092;9.182;2023-04-25T05:21:16;97245.41;;;5.15;100.00
38852;BME280;24605;50.092;9.182;2023-04-25T05:23:43;97257.16;;;5.27;100.00
38852;BME280;24605;50.092;9.182;2023-04-25T05:26:09;97261.75;;;5.07;100.00
38852;BME280;24605;50.092;9.182;2023-04-25T05:28:39;97265.59;;;5.03;100.00
38852;BME280;24605;50.092;9.182;2023-04-25T05:31:05;97266.44;;;4.85;100.00
38852;BME280;24605;50.092;9.182;2023-04-25T05:33:32;97270.53;;;4.70;100.00
38852;BME280;24605;50.092;9.182;2023-04-25T05:35:58;97279.22;;;4.79;100.00
38852;BME280;24605;50.092;9.182;2023-04-25T05:38:26;97273.19;;;4.96;100.00
38852;BME280;24605;50.092;9.182;2023-04-25T05:40:53;97286.47;;;4.93;100.00
38852;BME280;24605;50.092;9.182;2023-04-25T05:43:19;97280.53;;;4.83;100.00
38852;BME280;24605;50.092;9.182;2023-04-25T05:45:46;97287.66;;;4.81;100.00
38852;BME280;24605;50.092;9.182;2023-04-25T05:48:12;97285.22;;;4.97;100.00
38852;BME280;24605;50.092;9.182;2023-04-25T05:50:39;97272.00;;;4.91;100.00
38852;BME280;24605;50.092;9.182;2023-04-25T05:53:05;97297.09;;;5.00;100.00
38852;BME280;24605;50.092;9.182;2023-04-25T05:55:33;97290.94;;;5.01;100.00
38852;BME280;24605;50.092;9.182;2023-04-25T05:58:00;97281.09;;;5.13;100.00
38852;BME280;24605;50.092;9.182;2023-04-25T06:00:26;97292.69;;;5.18;100.00
38852;BME280;24605;50.092;9.182;2023-04-25T06:02:53;97297.94;;;5.27;100.00
38852;BME280;24605;50.092;9.182;2023-04-25T06:05:20;97296.16;;;5.27;100.00
38852;BME280;24605;50.092;9.182;2023-04-25T06:07:46;97292.63;;;5.37;100.00
38852;BME280;24605;50.092;9.182;2023-04-25T06:10:12;97303.47;;;5.50;100.00
38852;BME280;24605;50.092;9.182;2023-04-25T06:12:41;97306.47;;;5.37;100.00
38852;BME280;24605;50.092;9.182;2023-04-25T06:15:08;97301.66;;;5.51;100.00
38852;BME280;24605;50.092;9.182;2023-04-25T06:17:35;97304.38;;;5.41;100.00
38852;BME280;24605;50.092;9.182;2023-04-25T06:20:01;97304.81;;;5.62;100.00
38852;BME280;24605;50.092;9.182;2023-04-25T06:22:28;97304.38;;;5.67;100.00
38852;BME280;24605;50.092;9.182;2023-04-25T06:24:55;97302.53;;;5.86;100.00
38852;BME280;24605;50.092;9.182;2023-04-25T06:27:22;97299.22;;;5.75;100.00
38852;BME280;24605;50.092;9.182;2023-04-25T06:29:50;97288.59;;;5.69;100.00
38852;BME280;24605;50.092;9.182;2023-04-25T06:32:16;97301.72;;;5.85;100.00
38852;BME280;24605;50.092;9.182;2023-04-25T06:34:43;97308.72;;;5.93;100.00
38852;BME280;24605;50.092;9.182;2023-04-25T06:37:09;97306.75;;;5.87;100.00
38852;BME280;24605;50.092;9.182;2023-04-25T06:39:36;97306.41;;;6.08;100.00
38852;BME280;24605;50.092;9.182;2023-04-25T06:42:02;97301.97;;;6.00;100.00
38852;BME280;24605;50.092;9.182;2023-04-25T06:44:29;97307.34;;;5.72;100.00
38852;BME280;24605;50.092;9.182;2023-04-25T06:46:57;97303.09;;;5.71;100.00
38852;BME280;24605;50.092;9.182;2023-04-25T06:49:23;97305.00;;;5.61;100.00
38852;BME280;24605;50.092;9.182;2023-04-25T06:51:50;97299.06;;;5.51;100.00
38852;BME280;24605;50.092;9.182;2023-04-25T06:54:16;97309.34;;;5.60;100.00
38852;BME280;24605;50.092;9.182;2023-04-25T06:56:43;97302.63;;;5.49;100.00
38852;BME280;24605;50.092;9.182;2023-04-25T06:59:09;97308.59;;;5.68;100.00
38852;BME280;24605;50.092;9.182;2023-04-25T07:01:35;97306.72;;;5.78;100.00
38852;BME280;24605;50.092;9.182;2023-04-25T07:04:03;97293.91;;;5.85;100.00
38852;BME280;24605;50.092;9.182;2023-04-25T07:06:30;97305.59;;;6.07;100.00
38852;BME280;24605;50.092;9.182;2023-04-25T07:08:56;97304.94;;;6.05;100.00
38852;BME280;24605;50.092;9.182;2023-04-25T07:11:23;97295.84;;;6.18;100.00
38852;BME280;24605;50.092;9.182;2023-04-25T07:13:49;97297.81;;;6.16;100.00
38852;BME280;24605;50.092;9.182;2023-04-25T07:16:16;97300.09;;;6.19;100.00
38852;BME280;24605;50.092;9.182;2023-04-25T07:18:42;97298.06;;;6.39;100.00
38852;BME280;24605;50.092;9.182;2023-04-25T07:21:10;97307.19;;;6.08;100.00
38852;BME280;24605;50.092;9.182;2023-04-25T07:23:36;97310.88;;;6.32;100.00
38852;BME280;24605;50.092;9.182;2023-04-25T07:26:05;97322.28;;;6.39;100.00
38852;BME280;24605;50.092;9.182;2023-04-25T07:28:32;97312.91;;;6.63;100.00
38852;BME280;24605;50.092;9.182;2023-04-25T07:30:58;97309.50;;;6.63;100.00
38852;BME280;24605;50.092;9.182;2023-04-25T07:33:25;97316.81;;;6.59;100.00
38852;BME280;24605;50.092;9.182;2023-04-25T07:35:52;97316.84;;;6.76;100.00
38852;BME280;24605;50.092;9.182;2023-04-25T07:38:20;97315.25;;;6.99;100.00
38852;BME280;24605;50.092;9.182;2023-04-25T07:40:47;97316.53;;;6.79;100.00
38852;BME280;24605;50.092;9.182;2023-04-25T07:43:13;97273.84;;;6.88;100.00
38852;BME280;24605;50.092;9.182;2023-04-25T07:45:41;97318.97;;;7.46;100.00
38852;BME280;24605;50.092;9.182;2023-04-25T07:48:08;97323.06;;;7.57;100.00
38852;BME280;24605;50.092;9.182;2023-04-25T07:50:35;97326.34;;;7.18;100.00
38852;BME280;24605;50.092;9.182;2023-04-25T07:53:01;97331.72;;;7.00;100.00
38852;BME280;24605;50.092;9.182;2023-04-25T07:55:29;97335.13;;;7.17;100.00
38852;BME280;24605;50.092;9.182;2023-04-25T07:57:56;97344.25;;;7.04;100.00
38852;BME280;24605;50.092;9.182;2023-04-25T08:00:22;97347.16;;;6.93;100.00
38852;BME280;24605;50.092;9.182;2023-04-25T08:02:49;97334.91;;;6.69;100.00
38852;BME280;24605;50.092;9.182;2023-04-25T08:05:16;97348.16;;;7.17;100.00
38852;BME280;24605;50.092;9.182;2023-04-25T08:07:42;97344.06;;;6.81;100.00
38852;BME280;24605;50.092;9.182;2023-04-25T08:10:09;97354.34;;;7.16;100.00
38852;BME280;24605;50.092;9.182;2023-04-25T08:12:37;97358.59;;;7.50;100.00
38852;BME280;24605;50.092;9.182;2023-04-25T08:15:05;97362.50;;;7.29;100.00
38852;BME280;24605;50.092;9.182;2023-04-25T08:17:32;97369.97;;;7.08;100.00
38852;BME280;24605;50.092;9.182;2023-04-25T08:19:58;97376.47;;;6.79;100.00
38852;BME280;24605;50.092;9.182;2023-04-25T08:22:25;97368.66;;;6.87;100.00
38852;BME280;24605;50.092;9.182;2023-04-25T08:24:51;97370.94;;;7.06;100.00
38852;BME280;24605;50.092;9.182;2023-04-25T08:27:18;97367.81;;;6.86;100.00
38852;BME280;24605;50.092;9.182;2023-04-25T08:29:47;97376.97;;;6.99;100.00
38852;BME280;24605;50.092;9.182;2023-04-25T08:32:14;97374.50;;;6.97;100.00
38852;BME280;24605;50.092;9.182;2023-04-25T08:34:40;97385.78;;;7.06;100.00
38852;BME280;24605;50.092;9.182;2023-04-25T08:37:08;97357.56;;;6.85;100.00
38852;BME280;24605;50.092;9.182;2023-04-25T08:39:35;97388.41;;;7.22;100.00
38852;BME280;24605;50.092;9.182;2023-04-25T08:42:02;97376.16;;;7.97;99.69
38852;BME280;24605;50.092;9.182;2023-04-25T08:44:32;97381.16;;;8.24;97.11
38852;BME280;24605;50.092;9.182;2023-04-25T08:47:02;97388.69;;;8.10;95.09
38852;BME280;24605;50.092;9.182;2023-04-25T08:49:29;97344.66;;;7.91;96.26
38852;BME280;24605;50.092;9.182;2023-04-25T08:51:59;97397.97;;;8.05;96.07
38852;BME280;24605;50.092;9.182;2023-04-25T08:54:29;97401.75;;;7.94;96.48
38852;BME280;24605;50.092;9.182;2023-04-25T08:56:57;97389.06;;;7.66;97.37
38852;BME280;24605;50.092;9.182;2023-04-25T08:59:27;97409.44;;;7.87;95.20
38852;BME280;24605;50.092;9.182;2023-04-25T09:01:54;97414.66;;;7.62;95.55
38852;BME280;24605;50.092;9.182;2023-04-25T09:04:22;97401.59;;;7.87;94.54
38852;BME280;24605;50.092;9.182;2023-04-25T09:06:48;97418.38;;;8.01;95.03
38852;BME280;24605;50.092;9.182;2023-04-25T09:09:15;97413.81;;;8.03;89.67
38852;BME280;24605;50.092;9.182;2023-04-25T09:11:42;97419.56;;;7.90;89.09
38852;BME280;24605;50.092;9.182;2023-04-25T09:14:12;97399.50;;;7.74;85.31
38852;BME280;24605;50.092;9.182;2023-04-25T09:16:57;97428.13;;;8.32;84.95
38852;BME280;24605;50.092;9.182;2023-04-25T09:19:27;97434.31;;;8.39;84.29
38852;BME280;24605;50.092;9.182;2023-04-25T09:21:55;97428.94;;;8.32;85.25
38852;BME280;24605;50.092;9.182;2023-04-25T09:24:30;97419.13;;;8.35;83.04
38852;BME280;24605;50.092;9.182;2023-04-25T09:26:57;97404.91;;;8.45;81.14
38852;BME280;24605;50.092;9.182;2023-04-25T09:29:29;97434.66;;;8.84;83.14
38852;BME280;24605;50.092;9.182;2023-04-25T09:32:10;97424.28;;;8.68;82.29
38852;BME280;24605;50.092;9.182;2023-04-25T09:34:40;97447.53;;;8.54;84.87
38852;BME280;24605;50.092;9.182;2023-04-25T09:37:08;97438.69;;;8.55;84.26
38852;BME280;24605;50.092;9.182;2023-04-25T09:39:35;97446.47;;;8.72;84.98
38852;BME280;24605;50.092;9.182;2023-04-25T09:42:03;97441.50;;;8.85;85.61
38852;BME280;24605;50.092;9.182;2023-04-25T09:44:29;97452.88;;;9.32;78.52
38852;BME280;24605;50.092;9.182;2023-04-25T09:46:58;97453.78;;;9.39;75.90
38852;BME280;24605;50.092;9.182;2023-04-25T09:49:25;97452.50;;;9.12;78.30
38852;BME280;24605;50.092;9.182;2023-04-25T09:51:58;97426.94;;;9.22;76.71
38852;BME280;24605;50.092;9.182;2023-04-25T09:54:26;97455.16;;;9.35;74.90
38852;BME280;24605;50.092;9.182;2023-04-25T09:56:53;97450.91;;;9.57;79.97
38852;BME280;24605;50.092;9.182;2023-04-25T09:59:20;97461.91;;;9.53;69.38
38852;BME280;24605;50.092;9.182;2023-04-25T10:01:48;97455.09;;;8.81;73.98
38852;BME280;24605;50.092;9.182;2023-04-25T10:04:19;97456.50;;;8.91;73.94
38852;BME280;24605;50.092;9.182;2023-04-25T10:06:48;97465.09;;;9.08;70.75
38852;BME280;24605;50.092;9.182;2023-04-25T10:09:19;97463.84;;;9.28;71.39
38852;BME280;24605;50.092;9.182;2023-04-25T10:11:47;97466.63;;;8.94;71.16
38852;BME280;24605;50.092;9.182;2023-04-25T10:14:14;97465.75;;;9.11;71.82
38852;BME280;24605;50.092;9.182;2023-04-25T10:16:42;97464.50;;;9.30;72.30
38852;BME280;24605;50.092;9.182;2023-04-25T10:19:09;97468.31;;;9.19;73.15
38852;BME280;24605;50.092;9.182;2023-04-25T10:21:36;97474.03;;;9.22;72.98
38852;BME280;24605;50.092;9.182;2023-04-25T10:24:07;97467.28;;;9.28;73.97
38852;BME280;24605;50.092;9.182;2023-04-25T10:26:35;97474.53;;;9.87;73.15
38852;BME280;24605;50.092;9.182;2023-04-25T10:29:03;97480.28;;;10.06;72.36
38852;BME280;24605;50.092;9.182;2023-04-25T10:31:30;97485.31;;;9.93;69.42
38852;BME280;24605;50.092;9.182;2023-04-25T10:33:57;97433.50;;;9.18;72.94
38852;BME280;24605;50.092;9.182;2023-04-25T10:36:24;97479.94;;;9.16;70.78
38852;BME280;24605;50.092;9.182;2023-04-25T10:38:51;97486.75;;;9.25;69.83
38852;BME280;24605;50.092;9.182;2023-04-25T10:41:20;97478.69;;;9.35;72.94
38852;BME280;24605;50.092;9.182;2023-04-25T10:43:49;97480.22;;;9.53;71.08
38852;BME280;24605;50.092;9.182;2023-04-25T10:46:26;97482.56;;;9.16;75.17
38852;BME280;24605;50.092;9.182;2023-04-25T10:48:53;97491.13;;;9.33;72.32
38852;BME280;24605;50.092;9.182;2023-04-25T10:51:22;97486.63;;;9.19;73.71
38852;BME280;24605;50.092;9.182;2023-04-25T10:53:59;97497.59;;;8.74;75.55
38852;BME280;24605;50.092;9.182;2023-04-25T10:56:27;97496.03;;;8.97;75.80
38852;BME280;24605;50.092;9.182;2023-04-25T10:59:05;97496.34;;;9.02;75.33
38852;BME280;24605;50.092;9.182;2023-04-25T11:01:36;97503.34;;;8.61;75.09
38852;BME280;24605;50.092;9.182;2023-04-25T11:04:03;97502.38;;;8.54;76.41
38852;BME280;24605;50.092;9.182;2023-04-25T11:06:37;97505.00;;;8.46;77.83
38852;BME280;24605;50.092;9.182;2023-04-25T11:09:10;97513.97;;;8.35;79.34
38852;BME280;24605;50.092;9.182;2023-04-25T11:11:38;97515.75;;;8.59;79.85
38852;BME280;24605;50.092;9.182;2023-04-25T11:14:06;97529.97;;;8.57;79.63
38852;BME280;24605;50.092;9.182;2023-04-25T11:16:32;97492.59;;;8.48;78.18
38852;BME280;24605;50.092;9.182;2023-04-25T11:18:59;97516.06;;;8.56;80.10
38852;BME280;24605;50.092;9.182;2023-04-25T11:21:25;97490.53;;;8.83;80.00
38852;BME280;24605;50.092;9.182;2023-04-25T11:23:53;97523.38;;;8.77;76.99
38852;BME280;24605;50.092;9.182;2023-04-25T11:26:20;97543.47;;;8.77;73.71
38852;BME280;24605;50.092;9.182;2023-04-25T11:28:48;97523.81;;;8.98;75.15
38852;BME280;24605;50.092;9.182;2023-04-25T11:31:20;97523.28;;;9.11;71.94
38852;BME280;24605;50.092;9.182;2023-04-25T11:33:46;97520.91;;;9.55;72.09
38852;BME280;24605;50.092;9.182;2023-04-25T11:36:13;97529.88;;;9.61;69.67
38852;BME280;24605;50.092;9.182;2023-04-25T11:38:39;97524.09;;;9.43;70.11
38852;BME280;24605;50.092;9.182;2023-04-25T11:41:07;97526.88;;;9.72;68.20
38852;BME280;24605;50.092;9.182;2023-04-25T11:43:33;97536.56;;;9.64;68.69
38852;BME280;24605;50.092;9.182;2023-04-25T11:46:00;97531.44;;;9.47;69.63
38852;BME280;24605;50.092;9.182;2023-04-25T11:48:27;97524.66;;;9.61;68.58
38852;BME280;24605;50.092;9.182;2023-04-25T11:51:04;97534.50;;;9.82;64.86
38852;BME280;24605;50.092;9.182;2023-04-25T11:53:30;97528.13;;;9.53;66.47
38852;BME280;24605;50.092;9.182;2023-04-25T11:55:57;97532.06;;;10.04;63.46
38852;BME280;24605;50.092;9.182;2023-04-25T11:58:23;97541.34;;;10.07;61.86
38852;BME280;24605;50.092;9.182;2023-04-25T12:00:50;97534.03;;;9.79;60.70
38852;BME280;24605;50.092;9.182;2023-04-25T12:03:17;97538.88;;;10.05;61.11
38852;BME280;24605;50.092;9.182;2023-04-25T12:05:45;97546.72;;;10.13;60.50
38852;BME280;24605;50.092;9.182;2023-04-25T12:08:12;97542.16;;;9.61;62.70
38852;BME280;24605;50.092;9.182;2023-04-25T12:10:40;97550.69;;;9.54;60.74
38852;BME280;24605;50.092;9.182;2023-04-25T12:13:21;97543.84;;;9.45;63.24
38852;BME280;24605;50.092;9.182;2023-04-25T12:15:48;97546.41;;;9.85;61.48
38852;BME280;24605;50.092;9.182;2023-04-25T12:18:18;97542.03;;;9.54;62.49
38852;BME280;24605;50.092;9.182;2023-04-25T12:20:46;97553.69;;;9.12;62.24
38852;BME280;24605;50.092;9.182;2023-04-25T12:23:13;97555.34;;;9.36;63.20
38852;BME280;24605;50.092;9.182;2023-04-25T12:25:41;97556.31;;;9.03;63.68
38852;BME280;24605;50.092;9.182;2023-04-25T12:28:12;97550.72;;;9.46;64.25
38852;BME280;24605;50.092;9.182;2023-04-25T12:30:52;97557.38;;;9.57;64.04
38852;BME280;24605;50.092;9.182;2023-04-25T12:33:19;97559.59;;;9.37;64.10
38852;BME280;24605;50.092;9.182;2023-04-25T12:35:47;97553.72;;;9.43;65.25
38852;BME280;24605;50.092;9.182;2023-04-25T12:38:20;97572.09;;;9.18;64.25
38852;BME280;24605;50.092;9.182;2023-04-25T12:40:47;97567.31;;;8.74;65.94
38852;BME280;24605;50.092;9.182;2023-04-25T12:43:13;97561.59;;;8.78;64.91
38852;BME280;24605;50.092;9.182;2023-04-25T12:45:40;97572.50;;;8.90;64.79
38852;BME280;24605;50.092;9.182;2023-04-25T12:48:06;97557.25;;;8.54;64.11
38852;BME280;24605;50.092;9.182;2023-04-25T12:50:33;97551.34;;;8.44;65.67
38852;BME280;24605;50.092;9.182;2023-04-25T12:53:01;97572.06;;;8.78;66.10
38852;BME280;24605;50.092;9.182;2023-04-25T12:55:27;97578.94;;;8.71;65.77
38852;BME280;24605;50.092;9.182;2023-04-25T12:57:54;97580.72;;;8.38;65.51
38852;BME280;24605;50.092;9.182;2023-04-25T13:00:21;97585.31;;;8.44;64.69
38852;BME280;24605;50.092;9.182;2023-04-25T13:02:47;97578.47;;;8.59;64.78